GBYD/BJL METAR and TAF weather

Enter ICAO airport designator
Station Type Date Time Source
GBYD METAR 2018/10/21 03:00 UTC NOAA

GBYD 210300Z VRB02KT CAVO 26/24 Q1009


Station Type Date Time Source
GBYD Decoded METAR 2018/10/21 03:00 UTC NOAA

Banjul / Yundum, Gambia, The (GBYD) 13-21N 016-48W 36M
Oct 20, 2018 - 11:00 PM EDT / 2018.10.21 0300 UTC
Wind: Variable at 2 MPH (2 KT):0
Temperature: 78 F (26 C)
Dew Point: 75 F (24 C)
Relative Humidity: 88%
Pressure (altimeter): 29.80 in. Hg (1009 hPa)
ob: GBYD 210300Z VRB02KT CAVO 26/24 Q1009
cycle: 3

Station Type Date Time Source
GBYD TAF 2018/10/20 18:24 UTC NOAA

TAF TAF GBYD 201730Z 2018/2124 20006KT 8000 TS BKN013 FEW025CB
BECMG 2022/2024 NSW SCT013


Example: see airport list